• Join FlightAware (Why Join?)
  • Login
  • US Flag 
06:54AM EDT


 

Airport Tracker/Info


-or-


 

Live Flight TrackerFlight Track Log ✈ EJA941 ✈ 22-Aug-2013 ✈ KACY - KCHO

Flight Track Log - Related Links

Times and Time Zones

All times are in EDT time to prevent confusion due to time zone crossing. See the EJA941 flight status page for this flight to view local times or setup timezone preferences in your user account.

Time Position Orientation Groundspeed Altitude Reporting Facility
EDT Latitude Longitude Course Direction KTS MPH feet Rate Location/Type
08:04PM 39.4825 -74.6450 237° Southwest 218 251 3,600  Level Washington Center
08:06PM 39.3981 -74.7725 229° Southwest 285 328 6,900 1,920 Climbing Washington Center
08:07PM 39.3422 -74.8456 225° Southwest 290 334 9,400 1,500 Climbing Washington Center
08:08PM 39.2803 -74.9319 227° Southwest 303 349 9,900 1,260 Climbing Washington Center
08:09PM 39.2331 -75.0422 241° Southwest 338 389 11,900 960 Climbing Washington Center
08:10PM 39.0782 -75.2770 237° Southwest  Level FlightAware Approximate
08:10PM 39.1897 -75.1550 244° Southwest 345 397 11,900  Level Washington Center
08:11PM 39.1297 -75.2653 235° Southwest 366 421 12,200 1,800 Climbing Washington Center
08:12PM 39.0672 -75.3725 233° Southwest 373 429 15,500 1,860 Climbing Washington Center
08:13PM 39.0028 -75.4847 234° Southwest 386 444 15,900 180 Climbing Washington Center
08:14PM 38.9361 -75.6022 234° Southwest 398 458 15,900  Level Washington Center
08:15PM 38.8653 -75.7303 235° Southwest 424 488 15,900  Level Washington Center
08:16PM 38.7942 -75.8500 233° Southwest 434 499 15,900 540 Level Washington Center
08:17PM 38.7250 -75.9694 233° Southwest 434 499 17,100 1,920 Climbing Washington Center
08:18PM 38.6517 -76.0756 229° Southwest 423 487 19,800 1,440 Climbing Washington Center
08:19PM 38.5575 -76.1731 219° Southwest 427 491 20,000 60 Climbing Washington Center
08:20PM 38.4611 -76.2811 221° Southwest 451 519 20,000  Level Washington Center
08:21PM 38.3625 -76.3833 219° Southwest 459 528 20,000  Level Washington Center
08:22PM 38.2553 -76.4933 219° Southwest 459 528 20,000 -900 Level Washington Center
08:23PM 38.1606 -76.5978 221° Southwest 454 522 18,300 -2,040 Descending Washington Center
08:24PM 38.0969 -76.7211 237° Southwest 436 502 16,000 -1,320 Descending Washington Center
08:25PM 38.0850 -76.8711 264° West 406 467 15,700 -1,080 Descending Washington Center
08:26PM 38.0792 -77.0161 267° West 413 475 13,900 -1,620 Descending Washington Center
08:27PM 38.0714 -77.1558 266° West 413 475 12,500 -1,440 Descending Washington Center
08:28PM 38.0653 -77.2875 267° West 413 475 11,100 -1,080 Descending Washington Center
08:30PM 38.0500 -77.5333 266° West 310 357 9,600 -1,200 Descending Potomac TRACON
08:31PM 38.0500 -77.6167 270° West 280 322 8,000 -1,800 Descending Potomac TRACON
08:32PM 38.0333 -77.7333 260° West 271 312 6,000 -1,020 Descending Potomac TRACON
08:33PM 38.0333 -77.8000 270° West 266 306 6,000  Level Potomac TRACON
08:34PM 38.0500 -77.9000 282° West 274 315 6,000  Level Potomac TRACON
08:35PM 38.0833 -77.9833 297° West 273 314 6,000  Level Potomac TRACON
08:36PM 38.1167 -78.0667 297° West 270 311 6,000  Level Potomac TRACON
08:37PM 38.1500 -78.1500 297° West 224 258 6,000 -300 Level Potomac TRACON
08:38PM 38.1833 -78.2167 302° West 223 257 5,400 -840 Descending Potomac TRACON
08:39PM 38.2167 -78.2833 302° West 214 246 4,400 -900 Descending Potomac TRACON
08:40PM 38.2333 -78.3333 293° West 183 211 3,700 -960 Descending Potomac TRACON
08:41PM 38.2167 -78.4000 252° West 182 209 2,500 -900 Descending Potomac TRACON
08:43PM 38.1667 -78.4333 208° Southwest 125 144 1,000 -780 Descending Potomac TRACON
08:45PM 38.1333 -78.4500 260° West  Level FlightAware Approximate
08:52PM 38.1386 -78.4529 260° West  Level Estimated
08:53PM 38.1333 -78.4500 260° West  Level FlightAware Approximate
08:54PM 38.1386 -78.4529 260° West  Level Estimated
08:55PM 38.1333 -78.4500 260° West  Level FlightAware Approximate
08:56PM 38.1386 -78.4529 260° West  Level Estimated
08:57PM 38.1333 -78.4500 260° West  Level FlightAware Approximate
08:58PM 38.1386 -78.4529 260° West  Level Estimated